Time;durP1;ratioP1;P1;durP2;ratioP2;P2;SDS_P1;SDS_P2;PMS_P1;PMS_P2;Temp;Humidity;BMP_temperature;BMP_pressure;BME280_temperature;BME280_humidity;BME280_pressure;Samples;Min_cycle;Max_cycle;Signal;HPM_P1;HPM_P2
2022/06/04 00:01:23;;;;;;;;;;;;;;;12.09;64.80;100183.56;5004091;28;19931;-72
2022/06/04 00:03:49;;;;;;;;;;;;;;;12.05;64.34;100186.88;5003920;28;19925;-71
2022/06/04 00:06:16;;;;;;;;;;;;;;;12.03;64.61;100177.25;5007319;28;19930;-73
2022/06/04 00:08:42;;;;;;;;;;;;;;;11.99;64.90;100190.66;5004475;28;19979;-73
2022/06/04 00:16:37;;;;;;;;;;;;;;;11.92;64.87;100179.16;5024025;28;20521;-72
2022/06/04 00:19:03;;;;;;;;;;;;;;;11.89;65.09;100186.00;5007798;28;19925;-72
2022/06/04 00:21:30;;;;;;;;;;;;;;;11.84;65.22;100183.28;5035150;28;20036;-72
2022/06/04 00:23:56;;;;;;;;;;;;;;;11.85;64.86;100181.34;5007985;28;20108;-73
2022/06/04 00:26:22;;;;;;;;;;;;;;;11.83;65.28;100178.88;5007367;28;19925;-72
2022/06/04 00:28:48;;;;;;;;;;;;;;;11.82;65.39;100180.00;5004514;28;19925;-73
2022/06/04 00:31:14;;;;;;;;;;;;;;;11.79;65.38;100180.53;5005237;28;19979;-72
2022/06/04 00:33:40;;;;;;;;;;;;;;;11.73;65.45;100179.72;5002230;28;20012;-72
2022/06/04 00:36:06;;;;;;;;;;;;;;;11.71;65.76;100181.91;5006108;28;20020;-72
2022/06/04 00:38:33;;;;;;;;;;;;;;;11.69;65.73;100172.31;5004376;28;19933;-72
2022/06/04 00:41:03;;;;;;;;;;;;;;;11.65;65.75;100180.25;5004362;28;19925;-72
2022/06/04 00:43:29;;;;;;;;;;;;;;;11.63;66.06;100174.22;5015075;28;19925;-72
2022/06/04 00:46:09;;;;;;;;;;;;;;;11.63;66.07;100175.06;5013278;28;19940;-72
2022/06/04 00:48:35;;;;;;;;;;;;;;;11.60;66.41;100175.56;5019643;28;19924;-72
2022/06/04 00:51:02;;;;;;;;;;;;;;;11.57;66.29;100178.06;5029975;28;19932;-71
2022/06/04 00:53:27;;;;;;;;;;;;;;;11.57;66.16;100178.06;5020734;28;19987;-72
2022/06/04 00:56:03;;;;;;;;;;;;;;;11.53;66.29;100177.78;5004000;28;19925;-74
2022/06/04 00:58:40;;;;;;;;;;;;;;;11.51;66.17;100179.97;5004328;28;20014;-72
2022/06/04 01:01:09;;;;;;;;;;;;;;;11.51;66.19;100181.88;5009046;28;20007;-73
2022/06/04 01:03:42;;;;;;;;;;;;;;;11.52;66.13;100181.59;5022980;28;19925;-72
2022/06/04 01:06:15;;;;;;;;;;;;;;;11.54;65.90;100179.41;5009907;28;19925;-71
2022/06/04 01:08:57;;;;;;;;;;;;;;;11.54;66.01;100186.78;5019267;28;19924;-72
2022/06/04 01:11:32;;;;;;;;;;;;;;;11.51;66.28;100182.69;5021335;28;20392;-72
2022/06/04 01:14:05;;;;;;;;;;;;;;;11.54;66.32;100195.00;5001886;28;20031;-73
2022/06/04 01:16:37;;;;;;;;;;;;;;;11.53;66.18;100198.84;5002147;28;19975;-72
2022/06/04 01:19:14;;;;;;;;;;;;;;;11.52;65.92;100200.78;5004842;28;19931;-71
2022/06/04 01:21:55;;;;;;;;;;;;;;;11.52;66.01;100189.81;5001950;28;19931;-73
2022/06/04 01:24:31;;;;;;;;;;;;;;;11.52;66.29;100194.47;5002566;28;20446;-72
2022/06/04 01:27:11;;;;;;;;;;;;;;;11.52;66.44;100192.56;5003369;28;19947;-70
2022/06/04 01:29:44;;;;;;;;;;;;;;;11.55;66.07;100191.19;5017847;28;20404;-72
2022/06/04 01:32:12;;;;;;;;;;;;;;;11.56;66.39;100192.84;5023054;28;19925;-73
2022/06/04 01:34:43;;;;;;;;;;;;;;;11.58;66.34;100187.91;5020115;28;19925;-71
2022/06/04 01:37:12;;;;;;;;;;;;;;;11.56;66.33;100196.38;5022978;28;20304;-71
2022/06/04 01:42:28;;;;;;;;;;;;;;;11.55;66.63;100202.97;5039148;28;19929;-70
2022/06/04 01:44:57;;;;;;;;;;;;;;;11.56;66.88;100204.59;5008055;28;19925;-71
2022/06/04 01:47:23;;;;;;;;;;;;;;;11.56;67.08;100196.38;5000609;28;20087;-72
2022/06/04 01:49:50;;;;;;;;;;;;;;;11.58;66.61;100212.56;5001101;28;20580;-71
2022/06/04 01:52:23;;;;;;;;;;;;;;;11.60;66.31;100205.69;5014342;28;20265;-72
2022/06/04 01:54:52;;;;;;;;;;;;;;;11.65;66.35;100204.09;5006829;28;19960;-71
2022/06/04 01:57:20;;;;;;;;;;;;;;;11.65;66.43;100209.56;5002543;28;20672;-72
2022/06/04 01:59:51;;;;;;;;;;;;;;;11.63;66.49;100210.66;5017226;28;20454;-71
2022/06/04 02:02:20;;;;;;;;;;;;;;;11.65;66.75;100209.56;5021486;28;19957;-72
2022/06/04 02:04:48;;;;;;;;;;;;;;;11.70;66.52;100210.38;5019669;28;19932;-72
2022/06/04 02:07:31;;;;;;;;;;;;;;;11.72;66.87;100213.69;5021778;28;19932;-70
2022/06/04 02:09:59;;;;;;;;;;;;;;;11.71;66.94;100211.19;5008182;28;19931;-72
2022/06/04 02:12:28;;;;;;;;;;;;;;;11.73;66.60;100209.84;5019832;28;20419;-70
2022/06/04 02:14:55;;;;;;;;;;;;;;;11.74;66.41;100207.91;5008486;28;20463;-71
2022/06/04 02:17:23;;;;;;;;;;;;;;;11.75;66.25;100213.13;5017528;28;20513;-72
2022/06/04 02:19:49;;;;;;;;;;;;;;;11.72;66.05;100218.31;5001092;28;20012;-70
2022/06/04 02:22:16;;;;;;;;;;;;;;;11.77;65.78;100221.88;5002953;28;20507;-72
2022/06/04 02:24:42;;;;;;;;;;;;;;;11.79;65.63;100224.38;5018799;28;19924;-72
2022/06/04 02:27:09;;;;;;;;;;;;;;;11.81;65.51;100216.69;5024488;28;19925;-71
2022/06/04 02:29:35;;;;;;;;;;;;;;;11.83;65.48;100219.16;5025779;28;20313;-73
2022/06/04 02:32:05;;;;;;;;;;;;;;;11.84;65.40;100224.38;5003033;28;20021;-72
2022/06/04 02:34:34;;;;;;;;;;;;;;;11.86;65.35;100216.69;5008295;28;20028;-71
2022/06/04 02:37:02;;;;;;;;;;;;;;;11.89;65.38;100218.88;5037102;28;20311;-71
2022/06/04 02:39:31;;;;;;;;;;;;;;;11.94;65.39;100217.22;5025694;28;20020;-72
2022/06/04 02:42:03;;;;;;;;;;;;;;;11.96;64.91;100232.31;5022311;28;19929;-72
2022/06/04 02:44:31;;;;;;;;;;;;;;;11.99;64.84;100222.72;5023224;28;20044;-72
2022/06/04 02:47:00;;;;;;;;;;;;;;;12.05;64.80;100224.41;5024855;28;20379;-72
2022/06/04 02:49:31;;;;;;;;;;;;;;;12.06;65.00;100223.28;5014729;28;19925;-73
2022/06/04 02:51:57;;;;;;;;;;;;;;;12.11;65.09;100215.09;5008381;28;19932;-72
2022/06/04 02:54:27;;;;;;;;;;;;;;;12.14;64.91;100219.19;5006342;28;19932;-71
2022/06/04 02:56:55;;;;;;;;;;;;;;;12.16;64.55;100219.72;5003521;28;20447;-71
2022/06/04 02:59:22;;;;;;;;;;;;;;;12.20;64.82;100221.66;5009613;28;19925;-71
2022/06/04 03:01:51;;;;;;;;;;;;;;;12.24;64.72;100224.66;5005203;28;20385;-72
2022/06/04 03:04:16;;;;;;;;;;;;;;;12.28;64.64;100228.50;5005527;28;19994;-72
2022/06/04 03:06:43;;;;;;;;;;;;;;;12.35;64.75;100225.47;5025581;28;20380;-72
2022/06/04 03:09:15;;;;;;;;;;;;;;;12.40;64.49;100228.19;5038662;28;19929;-71
2022/06/04 03:11:43;;;;;;;;;;;;;;;12.43;64.41;100222.19;5025423;28;20027;-72
2022/06/04 03:14:09;;;;;;;;;;;;;;;12.49;64.49;100223.00;5039994;28;19976;-72
2022/06/04 03:16:36;;;;;;;;;;;;;;;12.53;64.40;100224.06;5025378;28;20027;-71
2022/06/04 03:19:02;;;;;;;;;;;;;;;12.59;63.79;100228.44;5017049;28;19925;-71
2022/06/04 03:21:28;;;;;;;;;;;;;;;12.63;63.42;100224.03;5006956;28;20403;-72
2022/06/04 03:23:56;;;;;;;;;;;;;;;12.70;63.48;100234.72;5027361;28;19925;-71
2022/06/04 03:26:21;;;;;;;;;;;;;;;12.77;63.53;100239.91;5025023;28;19925;-72
2022/06/04 03:28:47;;;;;;;;;;;;;;;12.76;62.90;100217.16;5034274;28;19935;-71
2022/06/04 03:31:13;;;;;;;;;;;;;;;12.83;62.85;100227.84;5009267;28;19956;-70
2022/06/04 03:33:39;;;;;;;;;;;;;;;12.83;63.08;100235.25;5021883;28;20360;-72
2022/06/04 03:36:08;;;;;;;;;;;;;;;12.81;62.29;100237.44;5002910;28;19964;-72
2022/06/04 03:38:33;;;;;;;;;;;;;;;12.88;62.63;100236.03;5004386;28;19968;-73
2022/06/04 03:41:00;;;;;;;;;;;;;;;12.89;62.89;100248.66;5006970;28;19937;-71
2022/06/04 03:43:26;;;;;;;;;;;;;;;12.90;63.48;100238.53;5006020;28;19971;-71
2022/06/04 03:45:52;;;;;;;;;;;;;;;12.93;63.53;100237.97;5005482;28;19925;-72
2022/06/04 03:48:22;;;;;;;;;;;;;;;12.98;63.12;100239.88;5008487;28;19929;-71
2022/06/04 03:50:48;;;;;;;;;;;;;;;12.99;62.59;100244.25;5021387;28;19929;-72
2022/06/04 03:53:14;;;;;;;;;;;;;;;13.01;62.75;100234.63;5025007;28;19924;-72
2022/06/04 03:55:40;;;;;;;;;;;;;;;13.05;62.67;100240.38;5023827;28;19960;-71
2022/06/04 03:58:07;;;;;;;;;;;;;;;13.12;61.92;100240.91;5007510;28;20364;-72
2022/06/04 04:00:34;;;;;;;;;;;;;;;13.16;61.91;100239.22;5005622;28;19961;-72
2022/06/04 04:03:01;;;;;;;;;;;;;;;13.18;62.07;100238.94;5015689;28;19933;-73
2022/06/04 04:05:29;;;;;;;;;;;;;;;13.24;62.61;100237.81;5024585;28;19929;-73
2022/06/04 04:07:55;;;;;;;;;;;;;;;13.33;62.70;100240.81;5024688;28;19932;-73
2022/06/04 04:10:21;;;;;;;;;;;;;;;13.38;62.84;100240.75;5005504;28;20057;-71
2022/06/04 04:12:47;;;;;;;;;;;;;;;13.44;62.30;100244.34;5001876;28;19932;-73
2022/06/04 04:15:15;;;;;;;;;;;;;;;13.45;61.80;100243.22;5006284;28;20397;-72
2022/06/04 04:17:42;;;;;;;;;;;;;;;13.47;61.67;100241.84;4997820;28;20393;-72
2022/06/04 04:20:09;;;;;;;;;;;;;;;13.52;61.82;100245.66;5001346;28;19957;-73
2022/06/04 04:22:35;;;;;;;;;;;;;;;13.56;60.98;100235.75;4993438;28;20191;-71
2022/06/04 04:25:01;;;;;;;;;;;;;;;13.60;61.51;100243.13;5023176;28;20028;-71
2022/06/04 04:27:27;;;;;;;;;;;;;;;13.67;61.31;100242.81;5039616;28;19924;-72
2022/06/04 04:29:53;;;;;;;;;;;;;;;13.77;61.04;100243.88;5023358;28;19956;-72
2022/06/04 04:32:20;;;;;;;;;;;;;;;13.77;61.22;100239.19;5022933;28;19929;-72
2022/06/04 04:34:46;;;;;;;;;;;;;;;13.84;60.85;100247.09;5038831;28;19929;-71
2022/06/04 04:37:11;;;;;;;;;;;;;;;13.88;60.76;100245.44;5037369;28;19932;-72
2022/06/04 04:39:37;;;;;;;;;;;;;;;13.91;60.77;100244.88;5039186;28;19972;-72
2022/06/04 04:42:04;;;;;;;;;;;;;;;13.97;60.48;100242.88;5023550;28;19925;-72
2022/06/04 04:44:30;;;;;;;;;;;;;;;14.04;60.34;100249.69;5022723;28;19971;-72
2022/06/04 04:46:55;;;;;;;;;;;;;;;14.09;60.27;100243.34;5020599;28;19982;-72
2022/06/04 04:49:23;;;;;;;;;;;;;;;14.20;60.27;100243.25;5011529;28;19925;-73
2022/06/04 04:51:49;;;;;;;;;;;;;;;14.25;60.08;100248.72;4990656;28;19983;-71
2022/06/04 04:54:15;;;;;;;;;;;;;;;14.28;59.69;100248.97;5005864;28;20356;-72
2022/06/04 04:56:40;;;;;;;;;;;;;;;14.31;59.21;100242.06;5005578;28;20423;-72
2022/06/04 04:59:06;;;;;;;;;;;;;;;14.37;59.24;100242.84;5005929;28;19925;-72
2022/06/04 05:01:33;;;;;;;;;;;;;;;14.41;59.10;100249.41;5013536;28;19929;-73
2022/06/04 05:03:59;;;;;;;;;;;;;;;14.42;58.57;100245.53;5021856;28;19932;-72
2022/06/04 05:06:26;;;;;;;;;;;;;;;14.48;58.73;100249.06;5019960;28;19925;-72
2022/06/04 05:08:55;;;;;;;;;;;;;;;14.53;58.99;100246.25;5023651;28;19932;-71
2022/06/04 05:11:23;;;;;;;;;;;;;;;14.57;58.60;100245.38;5010921;28;19999;-73
2022/06/04 05:13:49;;;;;;;;;;;;;;;14.62;59.00;100250.03;4989509;28;19941;-72
2022/06/04 05:16:15;;;;;;;;;;;;;;;14.70;59.03;100256.81;5004174;28;19929;-72
2022/06/04 05:18:41;;;;;;;;;;;;;;;14.74;59.08;100253.19;5009026;28;19959;-73
2022/06/04 05:21:08;;;;;;;;;;;;;;;14.83;58.74;100258.91;5023124;28;19956;-72
2022/06/04 05:23:36;;;;;;;;;;;;;;;14.83;58.77;100250.66;5039912;28;19924;-72
2022/06/04 05:26:01;;;;;;;;;;;;;;;14.88;57.29;100260.78;5025041;28;19979;-72
2022/06/04 05:28:27;;;;;;;;;;;;;;;14.88;56.70;100258.84;5025033;28;20214;-73
2022/06/04 05:30:53;;;;;;;;;;;;;;;14.92;56.05;100261.00;5008957;28;19929;-73
2022/06/04 05:33:20;;;;;;;;;;;;;;;14.93;56.48;100257.16;5007556;28;20012;-74
2022/06/04 05:35:46;;;;;;;;;;;;;;;15.01;56.32;100259.25;5011121;28;19992;-73
2022/06/04 05:38:11;;;;;;;;;;;;;;;15.05;56.60;100254.81;5034770;28;19925;-73
2022/06/04 05:40:39;;;;;;;;;;;;;;;15.16;56.97;100258.25;5023858;28;19929;-72
2022/06/04 05:43:04;;;;;;;;;;;;;;;15.26;56.30;100251.78;5036304;28;20011;-72
2022/06/04 05:45:30;;;;;;;;;;;;;;;15.32;55.87;100256.13;5004863;28;20020;-73
2022/06/04 05:47:56;;;;;;;;;;;;;;;15.37;55.47;100256.06;5004385;28;20495;-72
2022/06/04 05:50:22;;;;;;;;;;;;;;;15.40;55.19;100249.94;5003161;28;19925;-72
2022/06/04 05:52:47;;;;;;;;;;;;;;;15.42;54.26;100247.72;5021529;28;19929;-72
2022/06/04 05:55:13;;;;;;;;;;;;;;;15.42;53.74;100247.72;5021546;28;19924;-73
2022/06/04 05:57:40;;;;;;;;;;;;;;;15.44;53.64;100236.41;5006322;28;19925;-72
2022/06/04 06:00:08;;;;;;;;;;;;;;;15.50;53.71;100237.16;5015523;28;19987;-73
2022/06/04 06:02:38;;;;;;;;;;;;;;;15.55;53.65;100242.59;5038379;28;19925;-72
2022/06/04 06:05:04;;;;;;;;;;;;;;;15.59;53.40;100243.63;5016989;28;20016;-72
2022/06/04 06:07:30;;;;;;;;;;;;;;;15.59;53.94;100241.69;5019965;28;20691;-72
2022/06/04 06:09:56;;;;;;;;;;;;;;;15.64;53.47;100239.97;4984125;28;20419;-72
2022/06/04 06:12:22;;;;;;;;;;;;;;;15.70;53.58;100234.09;4999479;28;19925;-74
2022/06/04 06:14:49;;;;;;;;;;;;;;;15.78;53.69;100243.63;5017865;28;19939;-73
2022/06/04 06:17:15;;;;;;;;;;;;;;;15.84;53.54;100241.59;5019390;28;19926;-72
2022/06/04 06:19:41;;;;;;;;;;;;;;;15.92;52.79;100234.63;5020857;28;20037;-73
2022/06/04 06:22:07;;;;;;;;;;;;;;;16.02;51.99;100229.75;5023871;28;19993;-73
2022/06/04 06:24:33;;;;;;;;;;;;;;;16.13;51.49;100233.16;5005153;28;20040;-73
2022/06/04 06:26:59;;;;;;;;;;;;;;;16.30;51.50;100234.53;5025725;28;20428;-73
2022/06/04 06:29:27;;;;;;;;;;;;;;;16.54;51.36;100239.88;5025629;28;19925;-73
2022/06/04 06:31:54;;;;;;;;;;;;;;;16.76;51.12;100224.59;5026994;28;20075;-72
2022/06/04 06:34:21;;;;;;;;;;;;;;;16.94;50.25;100224.78;5009776;28;19925;-72
2022/06/04 06:36:48;;;;;;;;;;;;;;;17.05;50.16;100225.41;5005690;28;19956;-72
2022/06/04 06:39:14;;;;;;;;;;;;;;;17.18;49.91;100227.34;5004299;28;19979;-72
2022/06/04 06:41:40;;;;;;;;;;;;;;;17.26;49.46;100221.13;5004881;28;19992;-72
2022/06/04 06:44:06;;;;;;;;;;;;;;;17.22;49.90;100213.75;5035196;28;19955;-73
2022/06/04 06:46:32;;;;;;;;;;;;;;;17.22;49.68;100214.53;5013062;28;19940;-73
2022/06/04 06:49:02;;;;;;;;;;;;;;;17.29;49.00;100205.84;5016137;28;19933;-71
2022/06/04 06:51:30;;;;;;;;;;;;;;;17.38;48.50;100219.72;5015582;28;20306;-72
2022/06/04 06:53:56;;;;;;;;;;;;;;;17.34;49.22;100225.09;5038111;28;19948;-73
2022/06/04 06:56:24;;;;;;;;;;;;;;;17.35;48.73;100226.72;5021595;28;19955;-73
2022/06/04 06:58:50;;;;;;;;;;;;;;;17.41;48.71;100227.44;5026443;28;19925;-73
2022/06/04 07:01:15;;;;;;;;;;;;;;;17.61;48.47;100220.59;5009827;28;19980;-73
2022/06/04 07:03:41;;;;;;;;;;;;;;;17.84;47.82;100226.16;5007881;28;19925;-73
2022/06/04 07:06:11;;;;;;;;;;;;;;;18.06;47.14;100219.84;5023373;28;19960;-73
2022/06/04 07:08:37;;;;;;;;;;;;;;;18.37;47.35;100218.22;5022402;28;20264;-73
2022/06/04 07:11:04;;;;;;;;;;;;;;;18.40;47.57;100221.19;5020461;28;19935;-73
2022/06/04 07:13:30;;;;;;;;;;;;;;;18.47;46.34;100217.13;5033118;28;20311;-73
2022/06/04 07:15:55;;;;;;;;;;;;;;;18.61;45.56;100219.81;5003808;28;20189;-74
2022/06/04 07:18:23;;;;;;;;;;;;;;;18.88;45.32;100217.94;5008399;28;19925;-73
2022/06/04 07:20:48;;;;;;;;;;;;;;;18.73;44.82;100217.22;5021392;28;19925;-73
2022/06/04 07:23:18;;;;;;;;;;;;;;;18.57;45.76;100211.31;5036153;28;19980;-73
2022/06/04 07:25:45;;;;;;;;;;;;;;;18.77;45.79;100218.25;5006581;28;19932;-72
2022/06/04 07:28:11;;;;;;;;;;;;;;;18.87;45.60;100214.38;5017480;28;19925;-74
2022/06/04 07:30:37;;;;;;;;;;;;;;;19.05;44.46;100209.72;5011509;28;19929;-72
2022/06/04 07:33:03;;;;;;;;;;;;;;;19.37;42.99;100204.91;5007037;28;19956;-72
2022/06/04 07:35:29;;;;;;;;;;;;;;;19.37;43.90;100210.44;5012680;28;20003;-73
2022/06/04 07:37:55;;;;;;;;;;;;;;;19.47;43.67;100195.44;5043206;28;19967;-75
2022/06/04 07:40:22;;;;;;;;;;;;;;;19.41;43.10;100203.09;5027524;28;19925;-73
2022/06/04 07:42:48;;;;;;;;;;;;;;;19.02;43.19;100209.56;5010998;28;20419;-72
2022/06/04 07:45:14;;;;;;;;;;;;;;;18.73;44.08;100197.06;5007745;28;19956;-73
2022/06/04 07:47:41;;;;;;;;;;;;;;;19.10;43.70;100197.66;5007601;28;20016;-73
2022/06/04 07:50:07;;;;;;;;;;;;;;;19.60;43.15;100195.59;5024641;28;19925;-73
2022/06/04 07:52:34;;;;;;;;;;;;;;;19.86;42.23;100200.31;5006337;28;19925;-73
2022/06/04 07:55:00;;;;;;;;;;;;;;;20.03;40.76;100196.72;5004277;28;20007;-73
2022/06/04 07:57:27;;;;;;;;;;;;;;;19.89;41.47;100194.94;5008648;28;19932;-74
2022/06/04 07:59:53;;;;;;;;;;;;;;;20.21;40.73;100194.72;5007663;28;19931;-73
2022/06/04 08:02:21;;;;;;;;;;;;;;;20.21;40.08;100192.78;5008762;28;19925;-74
2022/06/04 08:04:47;;;;;;;;;;;;;;;20.05;40.98;100202.75;5007891;28;20027;-73
2022/06/04 08:07:13;;;;;;;;;;;;;;;19.96;40.28;100184.16;5019561;28;20015;-71
2022/06/04 08:09:39;;;;;;;;;;;;;;;20.23;39.39;100184.91;5018001;28;19925;-72
2022/06/04 08:12:05;;;;;;;;;;;;;;;20.72;37.88;100185.72;5027674;28;19925;-73
2022/06/04 08:14:33;;;;;;;;;;;;;;;21.06;37.99;100183.94;5023649;28;20428;-72
2022/06/04 08:17:00;;;;;;;;;;;;;;;21.34;38.14;100187.00;5001703;28;20044;-71
2022/06/04 08:19:27;;;;;;;;;;;;;;;20.60;37.49;100192.78;5006363;28;20305;-72
2022/06/04 08:21:53;;;;;;;;;;;;;;;20.53;37.75;100196.09;5008304;28;20017;-72
2022/06/04 08:24:20;;;;;;;;;;;;;;;21.20;37.46;100187.25;5026557;28;20420;-73
2022/06/04 08:26:47;;;;;;;;;;;;;;;22.10;36.04;100189.78;5013659;28;20035;-72
2022/06/04 08:29:13;;;;;;;;;;;;;;;22.94;35.02;100184.19;5014506;28;19932;-74
2022/06/04 08:31:40;;;;;;;;;;;;;;;22.66;34.97;100190.50;5008902;28;19929;-73
2022/06/04 08:34:06;;;;;;;;;;;;;;;21.46;36.71;100177.09;5010050;28;19926;-74
2022/06/04 08:36:32;;;;;;;;;;;;;;;21.34;37.21;100188.97;5019987;28;19926;-74
2022/06/04 08:38:58;;;;;;;;;;;;;;;22.39;35.41;100185.19;5007848;28;19929;-72
2022/06/04 08:41:34;;;;;;;;;;;;;;;22.71;34.46;100181.88;5003436;28;19966;-74
2022/06/04 08:44:03;;;;;;;;;;;;;;;22.12;35.57;100185.84;5005742;28;19941;-74
2022/06/04 08:46:31;;;;;;;;;;;;;;;22.49;35.03;100178.41;5004410;28;19929;-75
2022/06/04 08:49:00;;;;;;;;;;;;;;;23.01;34.53;100175.22;5005647;28;20405;-74
2022/06/04 08:51:28;;;;;;;;;;;;;;;23.83;33.37;100169.69;5006803;28;19925;-74
2022/06/04 08:53:55;;;;;;;;;;;;;;;24.31;32.71;100175.38;5005581;28;20381;-75
2022/06/04 08:59:15;;;;;;;;;;;;;;;22.69;34.75;100173.06;5005576;28;20000;-74
2022/06/04 09:01:43;;;;;;;;;;;;;;;22.18;35.31;100173.31;5005156;28;19925;-74
2022/06/04 09:04:15;;;;;;;;;;;;;;;22.98;34.37;100171.19;5004141;28;20304;-74
2022/06/04 09:06:46;;;;;;;;;;;;;;;23.91;32.31;100161.16;5003998;28;19925;-74
2022/06/04 09:09:14;;;;;;;;;;;;;;;24.32;30.83;100155.47;4987498;28;19925;-74
2022/06/04 09:11:44;;;;;;;;;;;;;;;24.81;29.95;100163.81;5006429;28;19925;-75
2022/06/04 09:14:25;;;;;;;;;;;;;;;25.03;29.58;100162.34;5004156;28;20031;-75
2022/06/04 09:16:55;;;;;;;;;;;;;;;25.17;30.16;100153.47;5002770;28;19980;-75
2022/06/04 09:19:24;;;;;;;;;;;;;;;24.87;29.93;100157.59;5006388;28;19929;-74
2022/06/04 09:21:51;;;;;;;;;;;;;;;24.33;30.84;100140.31;4988161;28;20249;-75
2022/06/04 09:24:18;;;;;;;;;;;;;;;24.64;30.36;100138.69;5004578;28;19925;-74
2022/06/04 09:26:48;;;;;;;;;;;;;;;25.06;29.91;100130.88;5004305;28;20455;-75
2022/06/04 09:29:26;;;;;;;;;;;;;;;25.10;28.85;100136.50;5005364;28;19932;-75
2022/06/04 09:31:58;;;;;;;;;;;;;;;25.09;29.03;100130.13;5004799;28;19952;-75
2022/06/04 09:34:28;;;;;;;;;;;;;;;25.35;28.90;100126.69;4988496;28;19932;-74
2022/06/04 09:36:55;;;;;;;;;;;;;;;25.60;28.42;100137.63;4988592;28;19955;-74
2022/06/04 09:39:22;;;;;;;;;;;;;;;25.30;27.81;100131.75;5012194;28;20035;-74
2022/06/04 09:41:50;;;;;;;;;;;;;;;24.26;30.07;100139.31;5002644;28;20333;-74
2022/06/04 09:44:16;;;;;;;;;;;;;;;24.94;29.43;100136.59;4987964;28;20371;-74
2022/06/04 09:46:46;;;;;;;;;;;;;;;25.27;29.18;100129.69;5014181;28;20408;-74
2022/06/04 09:49:18;;;;;;;;;;;;;;;26.17;28.29;100139.03;5021498;28;19931;-74
2022/06/04 09:51:46;;;;;;;;;;;;;;;27.08;27.00;100135.66;5006597;28;19933;-75
2022/06/04 09:54:23;;;;;;;;;;;;;;;26.71;26.53;100128.75;5003670;28;19956;-74
2022/06/04 09:56:51;;;;;;;;;;;;;;;25.44;28.52;100142.41;5005866;28;20772;-74
2022/06/04 09:59:18;;;;;;;;;;;;;;;25.38;28.96;100138.31;5005789;28;20396;-74
2022/06/04 10:01:51;;;;;;;;;;;;;;;26.46;27.86;100129.16;5004880;28;19925;-74
2022/06/04 10:04:17;;;;;;;;;;;;;;;26.66;27.61;100136.66;5004980;28;20042;-74
2022/06/04 10:06:43;;;;;;;;;;;;;;;25.73;28.65;100131.81;5004685;28;19926;-75
2022/06/04 10:12:00;;;;;;;;;;;;;;;26.82;26.86;100122.47;5006546;28;20130;-74
2022/06/04 10:14:26;;;;;;;;;;;;;;;25.66;27.77;100126.91;5000980;28;19926;-75
2022/06/04 10:16:52;;;;;;;;;;;;;;;24.04;29.57;100127.59;4996439;28;19925;-76
2022/06/04 10:19:19;;;;;;;;;;;;;;;22.99;31.24;100130.19;4999997;28;20019;-75
2022/06/04 10:21:45;;;;;;;;;;;;;;;23.33;31.23;100123.25;5011532;28;19924;-73
2022/06/04 10:24:20;;;;;;;;;;;;;;;25.23;28.30;100124.03;5023849;28;20396;-74
2022/06/04 10:26:54;;;;;;;;;;;;;;;26.47;26.47;100118.75;5000573;28;20487;-74
2022/06/04 10:29:37;;;;;;;;;;;;;;;27.62;25.06;100117.91;4998878;28;19941;-73
2022/06/04 10:32:09;;;;;;;;;;;;;;;28.50;24.17;100114.75;5001949;28;19929;-74
2022/06/04 10:34:42;;;;;;;;;;;;;;;27.66;25.18;100116.75;5001865;28;19979;-74
2022/06/04 10:37:13;;;;;;;;;;;;;;;26.12;27.39;100114.13;5016383;28;19932;-74
2022/06/04 10:39:44;;;;;;;;;;;;;;;24.73;29.50;100115.28;5019043;28;19972;-75
2022/06/04 10:42:25;;;;;;;;;;;;;;;23.73;31.05;100116.00;5034122;28;19964;-75
2022/06/04 10:44:58;;;;;;;;;;;;;;;23.02;32.18;100110.78;4988659;28;19925;-74
2022/06/04 10:47:27;;;;;;;;;;;;;;;22.78;32.33;100108.84;4999945;28;19929;-75
2022/06/04 10:50:11;;;;;;;;;;;;;;;22.80;32.47;100112.91;4997894;28;20393;-74
2022/06/04 10:52:41;;;;;;;;;;;;;;;23.47;31.60;100116.47;4994165;28;19926;-74
2022/06/04 10:55:13;;;;;;;;;;;;;;;25.46;28.87;100117.69;5006085;28;20083;-74
2022/06/04 10:57:44;;;;;;;;;;;;;;;27.09;26.64;100103.66;5006540;28;19936;-75
2022/06/04 11:00:12;;;;;;;;;;;;;;;28.13;25.50;100103.19;4999093;28;20032;-74
2022/06/04 11:02:41;;;;;;;;;;;;;;;27.52;25.45;100108.16;4999424;28;20039;-74
2022/06/04 11:05:12;;;;;;;;;;;;;;;25.86;27.12;100108.09;4998440;28;20051;-74
2022/06/04 11:07:48;;;;;;;;;;;;;;;24.55;28.97;100106.50;5000956;28;19925;-74
2022/06/04 11:10:18;;;;;;;;;;;;;;;24.57;28.80;100109.75;5023356;28;19932;-74
2022/06/04 11:12:47;;;;;;;;;;;;;;;24.55;28.78;100103.72;5037654;28;19994;-74
2022/06/04 11:15:15;;;;;;;;;;;;;;;24.40;29.17;100103.38;5020105;28;19929;-74
2022/06/04 11:17:45;;;;;;;;;;;;;;;24.44;29.52;100107.06;4666492;28;10000151;-74
2022/06/04 11:20:12;;;;;;;;;;;;;;;25.74;26.25;100106.28;5002822;28;19925;-73
2022/06/04 11:22:39;;;;;;;;;;;;;;;26.12;25.88;100098.13;5005297;28;19925;-75
2022/06/04 11:25:15;;;;;;;;;;;;;;;25.52;26.80;100095.81;5001549;28;19932;-75
2022/06/04 11:27:47;;;;;;;;;;;;;;;24.71;28.36;100101.69;5003675;28;20180;-75
2022/06/04 11:30:14;;;;;;;;;;;;;;;23.85;29.91;100101.16;5001010;28;20392;-75
2022/06/04 11:32:44;;;;;;;;;;;;;;;23.28;30.91;100084.47;5002691;28;19925;-76
2022/06/04 11:35:14;;;;;;;;;;;;;;;23.04;32.39;100099.28;5001777;28;19952;-76
2022/06/04 11:37:52;;;;;;;;;;;;;;;22.79;33.17;100104.91;5001713;28;19926;-76
2022/06/04 11:40:24;;;;;;;;;;;;;;;22.59;33.34;100099.13;5000866;28;20451;-76
2022/06/04 11:42:54;;;;;;;;;;;;;;;22.78;33.16;100104.06;5003459;28;19925;-76
2022/06/04 11:45:27;;;;;;;;;;;;;;;23.91;31.71;100099.75;4982960;28;20499;-77
2022/06/04 11:47:59;;;;;;;;;;;;;;;26.26;28.25;100086.38;5003970;28;20548;-75
2022/06/04 11:50:29;;;;;;;;;;;;;;;27.88;25.49;100078.47;5003652;28;19925;-77
2022/06/04 11:53:00;;;;;;;;;;;;;;;26.84;25.46;100083.63;5001679;28;19925;-76
2022/06/04 11:55:29;;;;;;;;;;;;;;;25.53;26.94;100084.28;4999369;28;20347;-76
2022/06/04 11:58:10;;;;;;;;;;;;;;;26.56;25.70;100080.03;4993877;28;19932;-77
2022/06/04 12:00:37;;;;;;;;;;;;;;;28.51;23.07;100072.19;4997466;28;19925;-75
2022/06/04 12:03:09;;;;;;;;;;;;;;;29.34;22.20;100080.25;5000018;28;19955;-76
2022/06/04 12:05:39;;;;;;;;;;;;;;;30.33;20.82;100073.56;4996982;28;20334;-76
2022/06/04 12:08:07;;;;;;;;;;;;;;;31.32;20.38;100074.94;5005735;28;20051;-75
2022/06/04 12:10:45;;;;;;;;;;;;;;;31.11;19.78;100079.44;5015751;28;19925;-76
2022/06/04 12:13:17;;;;;;;;;;;;;;;30.05;19.74;100074.38;5020150;28;20351;-76
2022/06/04 12:15:45;;;;;;;;;;;;;;;29.43;20.74;100063.00;5022435;28;20020;-76
2022/06/04 12:18:32;;;;;;;;;;;;;;;29.86;20.78;100065.06;5004299;28;19974;-76
2022/06/04 12:26:30;;;;;;;;;;;;;;;29.91;20.79;100061.06;5019038;28;20186;-76
2022/06/04 12:28:58;;;;;;;;;;;;;;;30.42;20.59;100051.38;5019746;28;19925;-76
2022/06/04 12:31:36;;;;;;;;;;;;;;;30.52;20.09;100057.41;5035941;28;19925;-76
2022/06/04 12:34:03;;;;;;;;;;;;;;;30.24;20.52;100042.97;4987977;28;19931;-76
2022/06/04 12:36:30;;;;;;;;;;;;;;;30.12;21.05;100052.63;5000806;28;19925;-76
2022/06/04 12:39:00;;;;;;;;;;;;;;;30.47;20.57;100055.03;5005452;28;20573;-76
2022/06/04 12:41:36;;;;;;;;;;;;;;;29.12;21.57;100049.22;4987450;28;19925;-76
2022/06/04 12:44:04;;;;;;;;;;;;;;;28.68;21.66;100039.72;5004927;28;19932;-76
2022/06/04 12:46:33;;;;;;;;;;;;;;;29.19;21.36;100030.72;4985856;28;19929;-77
2022/06/04 12:49:12;;;;;;;;;;;;;;;29.10;21.50;100033.91;5005488;28;20597;-76
2022/06/04 12:51:44;;;;;;;;;;;;;;;27.47;23.71;100036.31;5032128;28;19947;-76
2022/06/04 12:54:18;;;;;;;;;;;;;;;26.75;25.12;100047.44;5023849;28;19929;-75
2022/06/04 12:56:50;;;;;;;;;;;;;;;25.69;27.08;100031.00;5025938;28;19925;-76
2022/06/04 12:59:26;;;;;;;;;;;;;;;25.04;28.37;100021.31;5023158;28;20352;-75
2022/06/04 13:01:52;;;;;;;;;;;;;;;24.89;28.42;100025.81;5040151;28;19925;-76